LFPM 200100Z AUTO 16001KT 1000 BR NSC 02/02 Q1022